createdAt,value
2022-09-21T00:01:19.931Z,9.63
2022-09-21T00:03:47.243Z,10.55
2022-09-21T00:06:17.079Z,10.13
2022-09-21T00:08:45.543Z,10.20
2022-09-21T00:11:25.057Z,9.25
2022-09-21T00:13:55.322Z,10.00
2022-09-21T00:16:22.648Z,9.93
2022-09-21T00:18:49.703Z,9.32
2022-09-21T00:21:17.373Z,9.75
2022-09-21T00:23:44.900Z,9.80
2022-09-21T00:26:20.076Z,10.43
2022-09-21T00:28:47.645Z,9.98
2022-09-21T00:31:17.747Z,10.48
2022-09-21T00:33:44.949Z,9.57
2022-09-21T00:36:16.837Z,11.73
2022-09-21T00:38:46.186Z,10.90
2022-09-21T00:43:47.344Z,12.07
2022-09-21T00:46:20.404Z,11.98
2022-09-21T00:48:47.258Z,12.13
2022-09-21T00:51:14.846Z,11.20
2022-09-21T00:53:42.006Z,12.00
2022-09-21T00:56:11.059Z,11.93
2022-09-21T00:58:43.885Z,12.70
2022-09-21T01:01:12.232Z,12.50
2022-09-21T01:03:39.626Z,12.13
2022-09-21T01:06:06.499Z,12.27
2022-09-21T01:08:34.435Z,12.10
2022-09-21T01:11:23.073Z,12.95
2022-09-21T01:14:08.420Z,12.60
2022-09-21T01:16:49.006Z,12.18
2022-09-21T01:19:40.444Z,12.00
2022-09-21T01:22:33.169Z,11.75
2022-09-21T01:25:24.294Z,10.90
2022-09-21T01:28:16.146Z,11.45
2022-09-21T01:30:48.946Z,11.63
2022-09-21T01:33:23.422Z,10.43
2022-09-21T01:35:56.370Z,10.77
2022-09-21T01:38:28.191Z,10.32
2022-09-21T01:41:07.181Z,11.27
2022-09-21T01:43:41.056Z,10.70
2022-09-21T01:46:13.882Z,10.30
2022-09-21T01:48:44.899Z,11.30
2022-09-21T01:51:15.589Z,11.02
2022-09-21T01:53:48.351Z,10.52
2022-09-21T01:56:30.847Z,10.88
2022-09-21T01:59:11.345Z,10.40
2022-09-21T02:02:06.323Z,11.35
2022-09-21T02:04:35.136Z,10.88
2022-09-21T02:07:02.598Z,10.93
2022-09-21T02:09:29.875Z,12.02
2022-09-21T02:11:58.234Z,11.45
2022-09-21T02:14:25.910Z,12.20
2022-09-21T02:17:06.252Z,11.25
2022-09-21T02:20:03.031Z,11.32
2022-09-21T02:22:40.961Z,11.27
2022-09-21T02:25:21.701Z,10.73
2022-09-21T02:27:51.617Z,10.68
2022-09-21T02:30:26.561Z,9.82
2022-09-21T02:33:06.485Z,10.13
2022-09-21T02:35:52.105Z,9.15
2022-09-21T02:38:41.040Z,10.70
2022-09-21T02:41:17.010Z,10.25
2022-09-21T02:43:49.083Z,9.77
2022-09-21T02:46:28.756Z,9.55
2022-09-21T02:49:00.870Z,9.20
2022-09-21T02:51:42.231Z,10.48
2022-09-21T02:54:13.928Z,9.80
2022-09-21T02:56:42.614Z,9.50
2022-09-21T02:59:10.822Z,9.82
2022-09-21T03:01:40.421Z,10.50
2022-09-21T03:04:07.553Z,10.23
2022-09-21T03:06:34.719Z,10.02
2022-09-21T03:09:01.581Z,9.57
2022-09-21T03:11:28.642Z,9.05
2022-09-21T03:13:55.423Z,10.43
2022-09-21T03:16:22.947Z,9.15
2022-09-21T03:18:50.116Z,8.35
2022-09-21T03:21:17.013Z,8.70
2022-09-21T03:23:43.743Z,9.10
2022-09-21T03:26:10.769Z,8.88
2022-09-21T03:28:37.523Z,9.55
2022-09-21T03:31:04.567Z,8.98
2022-09-21T03:33:31.621Z,9.13
2022-09-21T03:35:58.602Z,8.80
2022-09-21T03:38:26.967Z,8.13
2022-09-21T03:40:58.197Z,8.60
2022-09-21T03:43:25.413Z,9.52
2022-09-21T03:45:53.321Z,9.63
2022-09-21T03:48:21.145Z,10.00
2022-09-21T03:50:48.128Z,10.20
2022-09-21T03:53:15.045Z,10.43
2022-09-21T03:55:42.210Z,10.25
2022-09-21T03:58:09.210Z,10.82
2022-09-21T04:00:36.456Z,11.30
2022-09-21T04:03:03.634Z,10.98
2022-09-21T04:05:30.419Z,12.63
2022-09-21T04:07:57.473Z,11.93
2022-09-21T04:10:29.316Z,10.73
2022-09-21T04:13:01.454Z,11.95
2022-09-21T04:15:29.547Z,12.68
2022-09-21T04:17:56.806Z,12.32
2022-09-21T04:20:24.075Z,12.23
2022-09-21T04:22:51.894Z,12.05
2022-09-21T04:25:18.769Z,12.63
2022-09-21T04:27:45.602Z,11.95
2022-09-21T04:30:14.266Z,13.00
2022-09-21T04:32:41.104Z,12.07
2022-09-21T04:35:08.495Z,12.68
2022-09-21T04:37:35.544Z,13.07
2022-09-21T04:40:03.500Z,13.93
2022-09-21T04:42:30.856Z,14.45
2022-09-21T04:44:57.810Z,14.52
2022-09-21T04:47:25.327Z,14.75
2022-09-21T04:49:53.460Z,14.82
2022-09-21T04:52:20.798Z,14.07
2022-09-21T04:54:48.078Z,14.88
2022-09-21T04:57:15.466Z,14.13
2022-09-21T04:59:42.630Z,14.60
2022-09-21T05:02:09.480Z,14.75
2022-09-21T05:04:36.408Z,15.80
2022-09-21T05:07:03.653Z,15.75
2022-09-21T05:09:48.873Z,15.02
2022-09-21T05:12:15.871Z,16.20
2022-09-21T05:14:44.206Z,16.20
2022-09-21T05:17:12.142Z,15.80
2022-09-21T05:19:39.317Z,17.27
2022-09-21T05:22:06.127Z,15.82
2022-09-21T05:24:32.950Z,16.65
2022-09-21T05:27:00.370Z,17.58
2022-09-21T05:29:27.475Z,16.10
2022-09-21T05:32:06.752Z,17.67
2022-09-21T05:34:44.774Z,16.67
2022-09-21T05:37:45.555Z,16.90
2022-09-21T05:40:12.984Z,17.00
2022-09-21T05:42:41.367Z,17.38
2022-09-21T05:45:14.405Z,15.70
2022-09-21T05:48:06.978Z,16.15
2022-09-21T05:50:42.983Z,14.68
2022-09-21T05:53:18.931Z,15.55
2022-09-21T05:55:54.494Z,15.63
2022-09-21T05:58:26.669Z,15.05
2022-09-21T06:01:15.469Z,16.02
2022-09-21T06:03:43.025Z,14.35
2022-09-21T06:06:10.215Z,13.88
2022-09-21T06:08:37.047Z,13.32
2022-09-21T06:11:04.372Z,13.32
2022-09-21T06:13:31.345Z,12.98
2022-09-21T06:16:01.366Z,12.07
2022-09-21T06:18:28.317Z,13.40
2022-09-21T06:20:55.365Z,12.00
2022-09-21T06:23:22.113Z,12.52
2022-09-21T06:25:57.510Z,12.00
2022-09-21T06:28:25.806Z,11.77
2022-09-21T06:30:54.377Z,12.40
2022-09-21T06:33:23.571Z,14.00
2022-09-21T06:35:57.509Z,13.18
2022-09-21T06:38:25.662Z,13.80
2022-09-21T06:40:53.513Z,13.73
2022-09-21T06:43:20.793Z,13.88
2022-09-21T06:45:55.734Z,13.40
2022-09-21T06:48:23.804Z,14.13
2022-09-21T06:50:51.644Z,13.85
2022-09-21T06:53:18.450Z,14.48
2022-09-21T06:55:45.254Z,13.95
2022-09-21T06:58:12.316Z,13.05
2022-09-21T07:00:39.114Z,12.77
2022-09-21T07:03:05.966Z,12.82
2022-09-21T07:05:34.267Z,13.18
2022-09-21T07:08:01.325Z,12.07
2022-09-21T07:10:28.603Z,12.57
2022-09-21T07:12:55.913Z,11.63
2022-09-21T07:15:23.713Z,12.45
2022-09-21T07:17:52.409Z,11.27
2022-09-21T07:20:19.631Z,11.63
2022-09-21T07:22:46.363Z,12.43
2022-09-21T07:25:13.544Z,10.77
2022-09-21T07:27:40.734Z,10.48
2022-09-21T07:30:09.198Z,10.15
2022-09-21T07:32:36.574Z,9.40
2022-09-21T07:35:03.879Z,9.60
2022-09-21T07:37:31.729Z,9.93
2022-09-21T07:39:58.864Z,9.60
2022-09-21T07:42:27.985Z,8.65
2022-09-21T07:45:03.314Z,9.18
2022-09-21T07:47:31.518Z,8.93
2022-09-21T07:49:58.379Z,8.55
2022-09-21T07:52:25.189Z,8.88
2022-09-21T07:54:52.204Z,9.50
2022-09-21T07:57:37.373Z,9.75
2022-09-21T08:00:05.334Z,10.45
2022-09-21T08:02:32.215Z,9.48
2022-09-21T08:04:59.078Z,9.68
2022-09-21T08:07:27.916Z,10.38
2022-09-21T08:09:54.706Z,9.98
2022-09-21T08:12:21.568Z,10.52
2022-09-21T08:14:48.580Z,9.65
2022-09-21T08:17:15.698Z,9.85
2022-09-21T08:19:42.630Z,8.35
2022-09-21T08:22:09.460Z,8.85
2022-09-21T08:24:37.675Z,7.90
2022-09-21T08:27:05.142Z,8.63
2022-09-21T08:29:31.911Z,9.10
2022-09-21T08:31:58.850Z,8.38
2022-09-21T08:34:26.448Z,8.73
2022-09-21T08:36:55.676Z,7.75
2022-09-21T08:39:22.803Z,7.80
2022-09-21T08:41:49.748Z,8.15
2022-09-21T08:44:45.650Z,8.15
2022-09-21T08:47:20.262Z,7.57
2022-09-21T08:49:55.458Z,7.10
2022-09-21T08:52:25.128Z,8.73
2022-09-21T08:54:51.813Z,7.97
2022-09-21T08:57:20.446Z,7.40
2022-09-21T08:59:49.520Z,9.00
2022-09-21T09:02:31.530Z,6.90
2022-09-21T09:05:12.731Z,6.72
2022-09-21T09:07:59.602Z,7.60
2022-09-21T09:10:43.500Z,7.28
2022-09-21T09:13:34.703Z,6.63
2022-09-21T09:16:41.712Z,8.98
2022-09-21T09:19:30.199Z,5.68
2022-09-21T09:21:57.382Z,31.30
2022-09-21T09:24:49.000Z,14.45
2022-09-21T09:27:27.678Z,11.27
2022-09-21T09:30:15.147Z,7.75
2022-09-21T09:32:57.895Z,9.00
2022-09-21T09:35:33.198Z,9.52
2022-09-21T09:38:10.661Z,82.07
2022-09-21T09:41:11.243Z,20.25
2022-09-21T09:43:47.238Z,22.25
2022-09-21T09:46:19.951Z,45.88
2022-09-21T09:49:12.286Z,11.57
2022-09-21T09:51:40.641Z,84.25
2022-09-21T09:54:15.004Z,17.55
2022-09-21T09:56:42.370Z,126.25
2022-09-21T09:59:30.577Z,257.63
2022-09-21T10:02:20.316Z,104.80
2022-09-21T10:05:06.137Z,68.95
2022-09-21T10:07:43.454Z,31.92
2022-09-21T10:10:28.814Z,12.75
2022-09-21T10:13:03.080Z,15.82
2022-09-21T10:15:30.153Z,9.25
2022-09-21T10:18:08.436Z,5.88
2022-09-21T10:20:35.484Z,31.02
2022-09-21T10:23:03.438Z,6.97
2022-09-21T10:25:31.265Z,10.88
2022-09-21T10:27:59.286Z,6.18
2022-09-21T10:30:38.849Z,6.05
2022-09-21T10:33:23.974Z,23.67
2022-09-21T10:35:52.933Z,7.25
2022-09-21T10:38:27.659Z,43.35
2022-09-21T10:40:55.116Z,16.15
2022-09-21T10:43:39.816Z,6.78
2022-09-21T10:46:09.564Z,6.10
2022-09-21T10:48:37.504Z,5.75
2022-09-21T10:51:04.753Z,4.72
2022-09-21T10:53:36.894Z,7.82
2022-09-21T10:56:16.035Z,17.67
2022-09-21T10:59:20.707Z,14.10
2022-09-21T11:01:50.872Z,19.70
2022-09-21T11:04:20.841Z,5.05
2022-09-21T11:06:52.860Z,4.43
2022-09-21T11:09:32.288Z,2.35
2022-09-21T11:12:23.878Z,3.45
2022-09-21T11:15:00.943Z,1.85
2022-09-21T11:17:48.894Z,4.85
2022-09-21T11:20:30.962Z,5.13
2022-09-21T11:23:05.080Z,4.20
2022-09-21T11:25:44.306Z,5.15
2022-09-21T11:28:25.179Z,5.68
2022-09-21T11:31:13.357Z,3.92
2022-09-21T11:33:58.960Z,4.15
2022-09-21T11:36:35.508Z,8.73
2022-09-21T11:39:11.091Z,7.85
2022-09-21T11:41:57.344Z,6.68
2022-09-21T11:44:38.901Z,3.63
2022-09-21T11:47:18.785Z,3.25
2022-09-21T11:50:26.383Z,3.05
2022-09-21T11:53:25.568Z,3.40
2022-09-21T11:56:07.204Z,3.80
2022-09-21T11:58:47.478Z,4.22
2022-09-21T12:01:36.820Z,3.33
2022-09-21T12:04:15.717Z,3.17
2022-09-21T12:06:50.105Z,3.00
2022-09-21T12:09:23.119Z,2.70
2022-09-21T12:12:22.459Z,2.75
2022-09-21T12:14:59.756Z,3.20
2022-09-21T12:17:45.487Z,3.40
2022-09-21T12:20:18.065Z,2.97
2022-09-21T12:22:47.356Z,3.47
2022-09-21T12:25:20.143Z,3.75
2022-09-21T12:27:56.736Z,3.17
2022-09-21T12:30:24.708Z,5.85
2022-09-21T12:33:01.878Z,9.73
2022-09-21T12:35:40.840Z,3.45
2022-09-21T12:38:07.908Z,5.88
2022-09-21T12:41:27.391Z,10.80
2022-09-21T12:44:18.516Z,2.90
2022-09-21T12:46:54.328Z,3.35
2022-09-21T12:49:29.911Z,3.53
2022-09-21T12:52:03.317Z,4.13
2022-09-21T12:54:48.201Z,3.22
2022-09-21T12:57:58.716Z,3.30
2022-09-21T13:00:35.109Z,3.85
2022-09-21T13:03:37.838Z,4.28
2022-09-21T13:06:41.644Z,5.68
2022-09-21T13:09:12.705Z,3.60
2022-09-21T13:11:54.536Z,4.00
2022-09-21T13:14:24.295Z,3.35
2022-09-21T13:16:57.787Z,3.80
2022-09-21T13:19:27.092Z,3.45
2022-09-21T13:22:19.952Z,3.92
2022-09-21T13:25:03.109Z,3.95
2022-09-21T13:28:09.407Z,3.90
2022-09-21T13:30:44.735Z,3.63
2022-09-21T13:33:20.696Z,5.68
2022-09-21T13:35:50.805Z,4.60
2022-09-21T13:38:34.593Z,4.50
2022-09-21T13:41:02.989Z,4.20
2022-09-21T13:44:05.127Z,5.18
2022-09-21T13:46:35.271Z,4.65
2022-09-21T13:49:11.488Z,4.40
2022-09-21T13:52:01.598Z,4.63
2022-09-21T13:55:00.010Z,4.90
2022-09-21T13:57:46.317Z,4.40
2022-09-21T14:00:13.129Z,4.40
2022-09-21T14:02:44.880Z,4.25
2022-09-21T14:05:28.450Z,6.18
2022-09-21T14:08:03.010Z,3.83
2022-09-21T14:10:32.686Z,4.05
2022-09-21T14:13:02.083Z,3.88
2022-09-21T14:15:38.165Z,3.67
2022-09-21T14:18:17.261Z,3.30
2022-09-21T14:21:17.333Z,3.67
2022-09-21T14:24:06.171Z,3.13
2022-09-21T14:26:50.344Z,3.13
2022-09-21T14:29:36.383Z,3.00
2022-09-21T14:32:05.604Z,2.85
2022-09-21T14:37:16.977Z,3.33
2022-09-21T14:39:45.780Z,5.40
2022-09-21T14:42:19.546Z,25.58
2022-09-21T14:44:51.446Z,9.70
2022-09-21T14:47:36.663Z,3.63
2022-09-21T14:50:24.142Z,3.40
2022-09-21T14:53:28.313Z,2.80
2022-09-21T14:56:13.661Z,3.17
2022-09-21T14:58:54.143Z,3.58
2022-09-21T15:01:37.904Z,3.88
2022-09-21T15:04:29.277Z,5.38
2022-09-21T15:07:27.857Z,5.70
2022-09-21T15:10:37.960Z,5.53
2022-09-21T15:13:08.284Z,7.93
2022-09-21T15:16:21.989Z,5.40
2022-09-21T15:18:54.446Z,9.60
2022-09-21T15:21:27.876Z,8.10
2022-09-21T15:23:56.286Z,3.92
2022-09-21T15:26:26.847Z,3.05
2022-09-21T15:29:12.295Z,4.13
2022-09-21T15:31:42.069Z,3.95
2022-09-21T15:34:11.141Z,4.07
2022-09-21T15:36:43.267Z,3.78
2022-09-21T15:39:30.384Z,3.55
2022-09-21T15:42:09.366Z,4.55
2022-09-21T15:44:38.586Z,3.47
2022-09-21T15:47:12.631Z,3.97
2022-09-21T15:49:41.253Z,3.92
2022-09-21T15:52:13.901Z,4.20
2022-09-21T15:54:45.005Z,4.25
2022-09-21T15:57:39.117Z,3.83
2022-09-21T16:00:21.568Z,3.92
2022-09-21T16:03:05.723Z,5.10
2022-09-21T16:06:17.057Z,5.10
2022-09-21T16:08:43.879Z,8.23
2022-09-21T16:11:19.129Z,12.50
2022-09-21T16:14:06.340Z,106.03
2022-09-21T16:16:33.484Z,68.13
2022-09-21T16:19:00.337Z,16.65
2022-09-21T16:21:29.293Z,25.13
2022-09-21T16:23:58.180Z,23.42
2022-09-21T16:26:30.179Z,21.23
2022-09-21T16:29:26.438Z,20.42
2022-09-21T16:32:19.001Z,17.55
2022-09-21T16:34:51.850Z,20.00
2022-09-21T16:37:24.647Z,35.17
2022-09-21T16:39:54.010Z,30.88
2022-09-21T16:42:22.850Z,55.42
2022-09-21T16:44:50.480Z,47.30
2022-09-21T16:47:28.179Z,35.90
2022-09-21T16:50:00.278Z,34.03
2022-09-21T16:52:29.268Z,36.58
2022-09-21T16:54:58.125Z,35.00
2022-09-21T16:57:26.066Z,40.55
2022-09-21T16:59:53.676Z,51.20
2022-09-21T17:02:20.861Z,29.90
2022-09-21T17:04:48.236Z,18.90
2022-09-21T17:07:16.789Z,12.57
2022-09-21T17:09:47.647Z,11.13
2022-09-21T17:12:17.763Z,9.77
2022-09-21T17:14:47.064Z,10.52
2022-09-21T17:19:53.657Z,7.22
2022-09-21T17:22:21.943Z,8.75
2022-09-21T17:25:00.151Z,8.30
2022-09-21T17:27:29.207Z,8.95
2022-09-21T17:29:56.536Z,8.82
2022-09-21T17:32:24.740Z,10.07
2022-09-21T17:35:01.789Z,8.77
2022-09-21T17:37:29.359Z,9.00
2022-09-21T17:39:56.389Z,8.38
2022-09-21T17:42:25.194Z,9.23
2022-09-21T17:45:15.228Z,7.22
2022-09-21T17:47:42.572Z,8.57
2022-09-21T17:50:12.026Z,9.73
2022-09-21T17:53:01.533Z,9.85
2022-09-21T17:55:29.180Z,10.27
2022-09-21T17:58:05.874Z,14.02
2022-09-21T18:00:35.880Z,10.45
2022-09-21T18:03:02.936Z,18.77
2022-09-21T18:05:30.861Z,13.65
2022-09-21T18:07:58.424Z,12.15
2022-09-21T18:10:27.231Z,20.90
2022-09-21T18:13:07.320Z,16.10
2022-09-21T18:15:34.364Z,18.80
2022-09-21T18:18:10.017Z,14.35
2022-09-21T18:20:52.580Z,18.30
2022-09-21T18:23:19.481Z,18.58
2022-09-21T18:25:49.708Z,10.07
2022-09-21T18:28:58.179Z,9.27
2022-09-21T18:31:43.997Z,8.80
2022-09-21T18:34:29.317Z,9.60
2022-09-21T18:37:18.797Z,8.05
2022-09-21T18:42:53.227Z,6.70
2022-09-21T18:45:28.619Z,7.40
2022-09-21T18:48:26.761Z,7.85
2022-09-21T18:51:21.775Z,7.88
2022-09-21T18:53:57.174Z,7.97
2022-09-21T18:56:27.084Z,8.05
2022-09-21T18:58:54.382Z,7.43
2022-09-21T19:01:22.861Z,9.52
2022-09-21T19:03:50.583Z,7.03
2022-09-21T19:06:29.701Z,8.00
2022-09-21T19:08:59.269Z,9.77
2022-09-21T19:11:32.294Z,6.60
2022-09-21T19:14:17.570Z,6.72
2022-09-21T19:16:53.712Z,7.97
2022-09-21T19:19:39.430Z,6.93
2022-09-21T19:22:35.278Z,8.75
2022-09-21T19:25:12.494Z,9.20
2022-09-21T19:27:43.959Z,9.73
2022-09-21T19:30:15.619Z,9.25
2022-09-21T19:32:56.619Z,9.55
2022-09-21T19:35:32.111Z,10.32
2022-09-21T19:38:04.099Z,9.45
2022-09-21T19:40:33.774Z,9.65
2022-09-21T19:43:17.432Z,9.98
2022-09-21T19:46:23.856Z,10.55
2022-09-21T19:48:55.629Z,11.40
2022-09-21T19:51:37.812Z,9.77
2022-09-21T19:54:31.936Z,10.70
2022-09-21T19:57:17.469Z,11.23
2022-09-21T19:59:45.017Z,11.93
2022-09-21T20:02:14.853Z,12.98
2022-09-21T20:05:05.766Z,12.20
2022-09-21T20:07:51.938Z,11.52
2022-09-21T20:10:42.138Z,12.38
2022-09-21T20:13:27.759Z,11.73
2022-09-21T20:16:31.867Z,10.82
2022-09-21T20:19:11.727Z,10.50
2022-09-21T20:21:41.633Z,10.60
2022-09-21T20:36:57.272Z,8.65
2022-09-21T20:39:24.376Z,8.57
2022-09-21T20:41:52.614Z,7.68
2022-09-21T20:44:19.476Z,7.75
2022-09-21T20:46:46.577Z,7.18
2022-09-21T20:49:15.383Z,7.95
2022-09-21T20:51:42.613Z,6.82
2022-09-21T20:54:09.720Z,7.75
2022-09-21T20:56:37.039Z,6.40
2022-09-21T20:59:03.916Z,6.40
2022-09-21T21:01:31.092Z,7.53
2022-09-21T21:04:02.879Z,6.40
2022-09-21T21:06:35.059Z,6.70
2022-09-21T21:09:02.107Z,6.18
2022-09-21T21:11:29.023Z,5.50
2022-09-21T21:13:56.329Z,5.50
2022-09-21T21:16:23.704Z,6.57
2022-09-21T21:18:51.283Z,5.55
2022-09-21T21:21:18.125Z,5.18
2022-09-21T21:24:07.930Z,5.43
2022-09-21T21:27:00.232Z,5.35
2022-09-21T21:29:23.047Z,6.25
2022-09-21T21:31:50.474Z,5.40
2022-09-21T21:34:17.937Z,6.55
2022-09-21T21:36:45.562Z,5.60
2022-09-21T21:39:12.475Z,6.65
2022-09-21T21:41:39.370Z,6.50
2022-09-21T21:44:06.691Z,5.90
2022-09-21T21:46:33.641Z,4.45
2022-09-21T21:49:00.565Z,5.47
2022-09-21T21:51:27.873Z,5.70
2022-09-21T21:53:54.653Z,6.65
2022-09-21T21:56:23.269Z,6.32
2022-09-21T21:58:54.596Z,5.53
2022-09-21T22:01:26.451Z,5.10
2022-09-21T22:03:58.881Z,5.97
2022-09-21T22:06:27.319Z,5.85
2022-09-21T22:08:56.187Z,5.85
2022-09-21T22:11:24.553Z,5.72
2022-09-21T22:13:53.941Z,6.10
2022-09-21T22:16:22.939Z,5.95
2022-09-21T22:18:50.829Z,8.55
2022-09-21T22:21:26.859Z,7.00
2022-09-21T22:23:56.211Z,6.78
2022-09-21T22:26:24.176Z,8.60
2022-09-21T22:28:57.797Z,7.95
2022-09-21T22:31:27.947Z,7.80
2022-09-21T22:33:56.533Z,7.97
2022-09-21T22:36:25.322Z,7.63
2022-09-21T22:38:53.577Z,7.28
2022-09-21T22:41:23.180Z,7.78
2022-09-21T22:43:52.134Z,7.00
2022-09-21T22:46:20.161Z,7.60
2022-09-21T22:48:47.859Z,7.53
2022-09-21T22:51:16.464Z,8.02
2022-09-21T22:53:43.739Z,7.60
2022-09-21T22:56:16.490Z,8.23
2022-09-21T22:58:45.851Z,8.38
2022-09-21T23:01:13.134Z,8.48
2022-09-21T23:03:41.950Z,8.90
2022-09-21T23:06:11.751Z,8.27
2022-09-21T23:08:39.775Z,7.22
2022-09-21T23:11:13.893Z,8.10
2022-09-21T23:13:41.635Z,8.52
2022-09-21T23:16:11.410Z,7.60
2022-09-21T23:18:40.181Z,7.05
2022-09-21T23:21:11.420Z,7.65
2022-09-21T23:23:38.860Z,7.82
2022-09-21T23:26:07.252Z,7.78
2022-09-21T23:28:36.107Z,8.30
2022-09-21T23:31:06.448Z,8.18
2022-09-21T23:33:36.011Z,7.88
2022-09-21T23:36:04.613Z,7.95
2022-09-21T23:38:32.056Z,8.13
2022-09-21T23:41:06.363Z,7.50
2022-09-21T23:43:34.710Z,7.38
2022-09-21T23:46:02.134Z,7.53
2022-09-21T23:48:29.265Z,8.32
2022-09-21T23:50:57.682Z,7.40
2022-09-21T23:53:25.721Z,7.95
2022-09-21T23:55:52.704Z,7.68
2022-09-21T23:58:20.572Z,7.65
